createdAt,value
2022-12-01T00:00:18.502Z,103297.28
2022-12-01T00:02:46.126Z,103301.13
2022-12-01T00:05:13.488Z,103294.69
2022-12-01T00:07:40.761Z,103293.19
2022-12-01T00:10:36.370Z,103291.16
2022-12-01T00:13:04.861Z,103295.59
2022-12-01T00:15:34.624Z,103300.59
2022-12-01T00:18:02.299Z,103302.44
2022-12-01T00:20:29.695Z,103293.63
2022-12-01T00:22:57.332Z,103296.78
2022-12-01T00:25:24.686Z,103302.09
2022-12-01T00:27:52.663Z,103301.78
2022-12-01T00:30:20.603Z,103301.31
2022-12-01T00:32:48.201Z,103296.38
2022-12-01T00:35:16.204Z,103295.00
2022-12-01T00:37:43.709Z,103296.47
2022-12-01T00:40:11.319Z,103299.28
2022-12-01T00:42:38.598Z,103289.38
2022-12-01T00:45:06.130Z,103289.50
2022-12-01T00:47:33.393Z,103290.66
2022-12-01T00:50:00.577Z,103294.44
2022-12-01T00:52:27.829Z,103285.63
2022-12-01T00:54:55.169Z,103283.91
2022-12-01T00:57:22.364Z,103282.19
2022-12-01T00:59:49.992Z,103285.44
2022-12-01T01:02:17.648Z,103278.38
2022-12-01T01:04:44.980Z,103278.38
2022-12-01T01:07:12.222Z,103276.63
2022-12-01T01:09:39.456Z,103280.31
2022-12-01T01:12:06.792Z,103286.28
2022-12-01T01:14:34.070Z,103285.34
2022-12-01T01:17:01.655Z,103286.75
2022-12-01T01:19:28.947Z,103285.94
2022-12-01T01:21:56.301Z,103292.06
2022-12-01T01:24:23.648Z,103296.00
2022-12-01T01:26:50.990Z,103283.84
2022-12-01T01:29:18.230Z,103291.06
2022-12-01T01:31:45.681Z,103284.94
2022-12-01T01:34:12.894Z,103283.84
2022-12-01T01:36:40.366Z,103287.13
2022-12-01T01:39:07.674Z,103291.59
2022-12-01T01:41:35.020Z,103284.09
2022-12-01T01:44:03.230Z,103288.94
2022-12-01T01:46:34.497Z,103280.50
2022-12-01T01:49:06.033Z,103276.50
2022-12-01T01:51:41.974Z,103278.97
2022-12-01T01:54:15.730Z,103281.28
2022-12-01T01:56:44.940Z,103280.56
2022-12-01T01:59:13.765Z,103283.50
2022-12-01T02:01:41.299Z,103283.84
2022-12-01T02:04:08.726Z,103286.22
2022-12-01T02:06:35.934Z,103280.25
2022-12-01T02:09:03.248Z,103281.53
2022-12-01T02:11:51.620Z,103275.50
2022-12-01T02:14:39.333Z,103276.75
2022-12-01T02:17:09.727Z,103280.31
2022-12-01T02:19:55.591Z,103274.91
2022-12-01T02:22:53.604Z,103269.88
2022-12-01T02:25:27.172Z,103269.59
2022-12-01T02:27:54.501Z,103273.34
2022-12-01T02:30:40.391Z,103262.84
2022-12-01T02:33:13.639Z,103263.16
2022-12-01T02:36:01.682Z,103262.31
2022-12-01T02:38:38.135Z,103266.66
2022-12-01T02:41:08.721Z,103262.22
2022-12-01T02:43:45.203Z,103259.94
2022-12-01T02:46:17.616Z,103260.75
2022-12-01T02:48:48.607Z,103257.06
2022-12-01T02:51:21.934Z,103256.06
2022-12-01T02:53:49.797Z,103252.84
2022-12-01T02:56:20.350Z,103256.34
2022-12-01T02:58:47.567Z,103245.56
2022-12-01T03:01:14.903Z,103255.56
2022-12-01T03:03:55.370Z,103247.19
2022-12-01T03:06:36.693Z,103241.75
2022-12-01T03:09:04.066Z,103247.72
2022-12-01T03:11:36.711Z,103248.84
2022-12-01T03:14:16.157Z,103247.47
2022-12-01T03:16:43.469Z,103243.47
2022-12-01T03:19:30.906Z,103245.56
2022-12-01T03:22:17.052Z,103243.44
2022-12-01T03:24:46.585Z,103240.25
2022-12-01T03:27:15.804Z,103243.59
2022-12-01T03:29:45.210Z,103252.06
2022-12-01T03:32:15.708Z,103250.03
2022-12-01T03:34:55.470Z,103253.09
2022-12-01T03:37:26.466Z,103243.00
2022-12-01T03:40:00.336Z,103246.66
2022-12-01T03:42:31.917Z,103252.91
2022-12-01T03:45:01.327Z,103242.63
2022-12-01T03:47:31.141Z,103242.53
2022-12-01T03:50:00.622Z,103241.03
2022-12-01T03:52:31.017Z,103243.38
2022-12-01T03:55:17.518Z,103246.53
2022-12-01T03:57:46.886Z,103244.72
2022-12-01T04:00:15.182Z,103250.28
2022-12-01T04:02:42.934Z,103246.56
2022-12-01T04:05:10.917Z,103241.75
2022-12-01T04:07:39.175Z,103247.00
2022-12-01T04:10:07.763Z,103241.28
2022-12-01T04:12:35.061Z,103248.00
2022-12-01T04:15:08.667Z,103240.69
2022-12-01T04:17:36.207Z,103248.38
2022-12-01T04:20:06.592Z,103242.59
2022-12-01T04:22:34.252Z,103253.34
2022-12-01T04:25:01.503Z,103243.47
2022-12-01T04:27:28.930Z,103241.03
2022-12-01T04:29:56.435Z,103242.34
2022-12-01T04:32:23.754Z,103240.09
2022-12-01T04:34:51.114Z,103239.00
2022-12-01T04:37:19.003Z,103246.47
2022-12-01T04:39:46.515Z,103244.91
2022-12-01T04:42:13.908Z,103239.59
2022-12-01T04:44:41.270Z,103235.72
2022-12-01T04:47:08.695Z,103246.06
2022-12-01T04:49:37.361Z,103237.28
2022-12-01T04:52:04.996Z,103234.38
2022-12-01T04:54:32.206Z,103242.69
2022-12-01T04:56:59.573Z,103237.09
2022-12-01T04:59:26.991Z,103236.94
2022-12-01T05:01:54.284Z,103227.31
2022-12-01T05:04:21.522Z,103232.97
2022-12-01T05:06:48.848Z,103232.19
2022-12-01T05:09:17.753Z,103231.31
2022-12-01T05:11:45.427Z,103235.28
2022-12-01T05:14:12.898Z,103232.03
2022-12-01T05:16:40.339Z,103231.84
2022-12-01T05:19:25.922Z,103228.09
2022-12-01T05:21:53.297Z,103227.88
2022-12-01T05:24:21.367Z,103238.91
2022-12-01T05:26:48.914Z,103234.22
2022-12-01T05:29:16.378Z,103227.72
2022-12-01T05:31:45.119Z,103226.44
2022-12-01T05:34:12.944Z,103236.75
2022-12-01T05:36:40.302Z,103241.63
2022-12-01T05:39:07.586Z,103243.56
2022-12-01T05:41:35.180Z,103238.41
2022-12-01T05:44:02.399Z,103238.78
2022-12-01T05:46:29.745Z,103236.28
2022-12-01T05:48:57.584Z,103226.38
2022-12-01T05:51:24.931Z,103241.28
2022-12-01T05:53:52.197Z,103236.63
2022-12-01T05:56:19.808Z,103242.13
2022-12-01T05:58:47.062Z,103239.50
2022-12-01T06:01:14.380Z,103237.56
2022-12-01T06:03:41.931Z,103244.88
2022-12-01T06:06:09.213Z,103244.44
2022-12-01T06:08:36.537Z,103247.53
2022-12-01T06:11:04.035Z,103251.44
2022-12-01T06:13:31.230Z,103248.19
2022-12-01T06:15:59.794Z,103250.69
2022-12-01T06:18:27.342Z,103253.75
2022-12-01T06:20:54.599Z,103253.44
2022-12-01T06:23:25.206Z,103256.91
2022-12-01T06:25:55.311Z,103252.41
2022-12-01T06:28:22.492Z,103258.69
2022-12-01T06:30:49.864Z,103263.28
2022-12-01T06:33:17.094Z,103268.47
2022-12-01T06:35:44.546Z,103264.78
2022-12-01T06:38:11.739Z,103269.00
2022-12-01T06:40:38.991Z,103268.81
2022-12-01T06:43:06.544Z,103264.16
2022-12-01T06:45:33.959Z,103257.66
2022-12-01T06:48:01.377Z,103271.50
2022-12-01T06:50:28.700Z,103268.28
2022-12-01T06:52:56.000Z,103267.69
2022-12-01T06:55:23.436Z,103267.84
2022-12-01T06:57:50.987Z,103269.97
2022-12-01T07:00:18.963Z,103270.69
2022-12-01T07:02:46.577Z,103269.06
2022-12-01T07:05:14.117Z,103268.47
2022-12-01T07:07:41.416Z,103262.38
2022-12-01T07:10:10.170Z,103267.75
2022-12-01T07:12:37.850Z,103271.22
2022-12-01T07:15:06.583Z,103273.47
2022-12-01T07:17:34.092Z,103271.38
2022-12-01T07:20:01.371Z,103268.94
2022-12-01T07:22:32.623Z,103265.31
2022-12-01T07:25:00.509Z,103271.97
2022-12-01T07:27:31.356Z,103266.88
2022-12-01T07:29:58.664Z,103262.50
2022-12-01T07:32:26.071Z,103263.41
2022-12-01T07:34:53.336Z,103267.75
2022-12-01T07:37:20.565Z,103265.47
2022-12-01T07:39:48.239Z,103272.22
2022-12-01T07:42:15.660Z,103266.25
2022-12-01T07:44:42.920Z,103275.50
2022-12-01T07:47:10.173Z,103262.47
2022-12-01T07:49:37.958Z,103269.19
2022-12-01T07:52:05.179Z,103272.47
2022-12-01T07:54:32.572Z,103270.31
2022-12-01T07:56:59.760Z,103272.81
2022-12-01T07:59:27.188Z,103280.03
2022-12-01T08:01:54.510Z,103275.44
2022-12-01T08:04:21.874Z,103267.34
2022-12-01T08:06:49.105Z,103262.63
2022-12-01T08:09:16.540Z,103261.53
2022-12-01T08:11:43.747Z,103273.00
2022-12-01T08:14:11.035Z,103281.16
2022-12-01T08:16:38.448Z,103275.78
2022-12-01T08:19:05.912Z,103282.41
2022-12-01T08:21:33.270Z,103276.63
2022-12-01T08:24:00.817Z,103276.28
2022-12-01T08:26:28.148Z,103282.06
2022-12-01T08:28:55.586Z,103276.75
2022-12-01T08:31:24.379Z,103277.22
2022-12-01T08:33:51.787Z,103282.47
2022-12-01T08:36:20.589Z,103281.44
2022-12-01T08:38:49.149Z,103283.38
2022-12-01T08:41:16.756Z,103281.72
2022-12-01T08:44:00.915Z,103285.25
2022-12-01T08:46:31.195Z,103282.00
2022-12-01T08:48:58.873Z,103287.03
2022-12-01T08:51:26.419Z,103285.34
2022-12-01T08:53:54.999Z,103279.50
2022-12-01T08:56:25.170Z,103281.88
2022-12-01T08:58:53.696Z,103294.47
2022-12-01T09:01:21.287Z,103283.22
2022-12-01T09:03:49.317Z,103295.66
2022-12-01T09:06:17.704Z,103283.50
2022-12-01T09:08:45.068Z,103285.59
2022-12-01T09:11:13.741Z,103283.09
2022-12-01T09:13:41.740Z,103281.19
2022-12-01T09:16:11.619Z,103286.75
2022-12-01T09:18:39.132Z,103276.22
2022-12-01T09:21:10.178Z,103275.00
2022-12-01T09:23:37.702Z,103268.09
2022-12-01T09:26:06.431Z,103271.31
2022-12-01T09:28:35.312Z,103266.25
2022-12-01T09:31:09.431Z,103271.13
2022-12-01T09:33:37.381Z,103267.34
2022-12-01T09:36:05.763Z,103269.06
2022-12-01T09:38:34.105Z,103264.66
2022-12-01T09:41:04.512Z,103263.88
2022-12-01T09:43:43.660Z,103260.44
2022-12-01T09:46:14.273Z,103263.97
2022-12-01T09:48:43.522Z,103259.00
2022-12-01T09:51:14.851Z,103263.44
2022-12-01T09:53:43.135Z,103260.56
2022-12-01T09:56:22.569Z,103252.19
2022-12-01T09:58:52.530Z,103256.56
2022-12-01T10:01:25.881Z,103249.69
2022-12-01T10:03:57.158Z,103254.31
2022-12-01T10:06:40.369Z,103247.53
2022-12-01T10:09:07.749Z,103256.88
2022-12-01T10:11:36.006Z,103249.97
2022-12-01T10:14:03.928Z,103247.66
2022-12-01T10:16:35.636Z,103246.66
2022-12-01T10:19:02.999Z,103251.06
2022-12-01T10:21:48.576Z,103245.53
2022-12-01T10:24:18.921Z,103237.13
2022-12-01T10:27:00.182Z,103239.59
2022-12-01T10:29:36.343Z,103238.84
2022-12-01T10:32:10.319Z,103236.63
2022-12-01T10:34:39.659Z,103241.34
2022-12-01T10:37:10.355Z,103237.97
2022-12-01T10:39:38.906Z,103238.53
2022-12-01T10:42:07.900Z,103235.38
2022-12-01T10:44:35.614Z,103227.88
2022-12-01T10:47:03.256Z,103231.13
2022-12-01T10:49:38.258Z,103225.81
2022-12-01T10:52:05.760Z,103221.78
2022-12-01T10:54:37.477Z,103220.50
2022-12-01T10:57:06.179Z,103219.13
2022-12-01T10:59:38.755Z,103224.69
2022-12-01T11:02:14.501Z,103217.38
2022-12-01T11:04:56.127Z,103222.91
2022-12-01T11:07:23.578Z,103224.75
2022-12-01T11:10:02.877Z,103221.78
2022-12-01T11:12:30.460Z,103222.75
2022-12-01T11:14:58.137Z,103230.31
2022-12-01T11:17:26.931Z,103225.13
2022-12-01T11:19:54.310Z,103219.47
2022-12-01T11:22:23.386Z,103214.50
2022-12-01T11:24:53.464Z,103214.53
2022-12-01T11:27:29.169Z,103210.56
2022-12-01T11:29:57.900Z,103203.91
2022-12-01T11:32:26.598Z,103194.84
2022-12-01T11:35:12.386Z,103202.25
2022-12-01T11:37:54.764Z,103198.53
2022-12-01T11:40:38.215Z,103192.63
2022-12-01T11:43:06.437Z,103203.13
2022-12-01T11:45:37.136Z,103192.78
2022-12-01T11:48:13.429Z,103179.25
2022-12-01T11:50:42.469Z,103186.97
2022-12-01T11:53:28.287Z,103187.06
2022-12-01T11:56:14.976Z,103182.78
2022-12-01T11:58:43.248Z,103184.16
2022-12-01T12:01:22.136Z,103179.75
2022-12-01T12:04:06.145Z,103179.75
2022-12-01T12:06:56.152Z,103176.13
2022-12-01T12:09:28.120Z,103178.88
2022-12-01T12:12:21.159Z,103181.22
2022-12-01T12:14:54.763Z,103182.72
2022-12-01T12:17:40.374Z,103172.94
2022-12-01T12:20:30.984Z,103178.06
2022-12-01T12:23:18.539Z,103185.69
2022-12-01T12:25:45.829Z,103179.19
2022-12-01T12:28:13.017Z,103172.66
2022-12-01T12:30:49.397Z,103172.03
2022-12-01T12:33:22.711Z,103176.78
2022-12-01T12:36:01.432Z,103171.00
2022-12-01T12:38:31.982Z,103167.69
2022-12-01T12:41:05.121Z,103168.78
2022-12-01T12:43:58.775Z,103174.78
2022-12-01T12:46:49.093Z,103164.28
2022-12-01T12:49:20.413Z,103165.28
2022-12-01T12:51:55.965Z,103165.84
2022-12-01T12:54:26.232Z,103166.56
2022-12-01T12:57:05.819Z,103166.72
2022-12-01T12:59:35.886Z,103161.88
2022-12-01T13:02:03.269Z,103160.88
2022-12-01T13:04:42.684Z,103159.75
2022-12-01T13:07:20.852Z,103161.34
2022-12-01T13:09:51.754Z,103158.00
2022-12-01T13:12:28.406Z,103162.19
2022-12-01T13:15:01.393Z,103165.78
2022-12-01T13:17:33.812Z,103165.91
2022-12-01T13:20:01.150Z,103176.41
2022-12-01T13:22:33.042Z,103169.53
2022-12-01T13:25:01.191Z,103170.56
2022-12-01T13:27:33.094Z,103172.72
2022-12-01T13:30:00.692Z,103170.94
2022-12-01T13:32:27.900Z,103171.09
2022-12-01T13:34:55.322Z,103175.06
2022-12-01T13:37:40.820Z,103169.88
2022-12-01T13:40:28.448Z,103171.94
2022-12-01T13:42:57.562Z,103168.50
2022-12-01T13:45:24.941Z,103167.84
2022-12-01T13:47:52.375Z,103163.63
2022-12-01T13:50:48.566Z,103166.84
2022-12-01T13:53:18.970Z,103174.63
2022-12-01T13:55:58.258Z,103180.19
2022-12-01T13:58:34.875Z,103173.31
2022-12-01T14:01:20.609Z,103168.69
2022-12-01T14:04:03.735Z,103172.66
2022-12-01T14:06:30.981Z,103170.53
2022-12-01T14:09:00.169Z,103162.53
2022-12-01T14:11:28.545Z,103159.19
2022-12-01T14:14:00.164Z,103155.22
2022-12-01T14:16:48.042Z,103153.56
2022-12-01T14:19:34.154Z,103159.09
2022-12-01T14:22:02.238Z,103157.00
2022-12-01T14:24:37.561Z,103153.50
2022-12-01T14:27:05.660Z,103151.22
2022-12-01T14:29:32.912Z,103151.94
2022-12-01T14:32:00.114Z,103144.16
2022-12-01T14:34:30.185Z,103147.78
2022-12-01T14:37:02.599Z,103136.91
2022-12-01T14:39:32.094Z,103147.75
2022-12-01T14:42:02.612Z,103136.69
2022-12-01T14:44:34.863Z,103140.22
2022-12-01T14:47:11.110Z,103146.75
2022-12-01T14:49:40.722Z,103137.69
2022-12-01T14:52:17.948Z,103136.22
2022-12-01T14:54:46.323Z,103137.47
2022-12-01T14:57:17.288Z,103135.13
2022-12-01T14:59:45.156Z,103133.03
2022-12-01T15:02:13.963Z,103130.16
2022-12-01T15:05:00.089Z,103132.34
2022-12-01T15:07:27.504Z,103134.91
2022-12-01T15:09:58.762Z,103135.84
2022-12-01T15:12:26.789Z,103137.31
2022-12-01T15:14:54.174Z,103125.28
2022-12-01T15:17:35.922Z,103125.81
2022-12-01T15:20:04.106Z,103127.75
2022-12-01T15:22:33.525Z,103124.81
2022-12-01T15:25:08.721Z,103116.66
2022-12-01T15:27:36.046Z,103122.56
2022-12-01T15:30:04.955Z,103117.50
2022-12-01T15:32:34.590Z,103112.31
2022-12-01T15:35:03.635Z,103113.75
2022-12-01T15:37:38.825Z,103103.63
2022-12-01T15:43:05.915Z,103108.78
2022-12-01T15:45:42.337Z,103116.56
2022-12-01T15:48:17.965Z,103112.56
2022-12-01T15:50:49.999Z,103115.84
2022-12-01T15:53:20.143Z,103113.53
2022-12-01T15:55:51.808Z,103117.28
2022-12-01T15:58:23.485Z,103120.56
2022-12-01T16:01:01.717Z,103118.47
2022-12-01T16:03:29.592Z,103128.50
2022-12-01T16:05:58.078Z,103110.69
2022-12-01T16:08:27.901Z,103122.19
2022-12-01T16:11:10.435Z,103123.38
2022-12-01T16:13:40.302Z,103119.06
2022-12-01T16:16:26.425Z,103109.00
2022-12-01T16:18:55.670Z,103109.41
2022-12-01T16:21:23.671Z,103114.72
2022-12-01T16:23:58.534Z,103105.88
2022-12-01T16:26:26.055Z,103103.16
2022-12-01T16:28:54.336Z,103104.63
2022-12-01T16:31:21.775Z,103104.25
2022-12-01T16:33:59.311Z,103100.22
2022-12-01T16:36:27.032Z,103102.06
2022-12-01T16:38:54.343Z,103102.16
2022-12-01T16:41:32.229Z,103108.59
2022-12-01T16:44:27.419Z,103096.41
2022-12-01T16:46:53.318Z,103095.41
2022-12-01T16:49:20.873Z,103096.50
2022-12-01T16:51:56.104Z,103103.53
2022-12-01T16:54:24.497Z,103103.53
2022-12-01T16:56:51.706Z,103102.06
2022-12-01T16:59:20.155Z,103102.25
2022-12-01T17:01:47.517Z,103109.31
2022-12-01T17:04:15.167Z,103102.06
2022-12-01T17:06:42.374Z,103106.91
2022-12-01T17:09:10.019Z,103107.56
2022-12-01T17:11:37.247Z,103108.91
2022-12-01T17:14:04.471Z,103112.94
2022-12-01T17:16:31.856Z,103111.38
2022-12-01T17:19:03.217Z,103100.50
2022-12-01T17:21:30.626Z,103104.66
2022-12-01T17:23:57.912Z,103098.84
2022-12-01T17:26:25.239Z,103095.69
2022-12-01T17:28:54.241Z,103093.06
2022-12-01T17:31:22.444Z,103092.47
2022-12-01T17:33:50.572Z,103092.28
2022-12-01T17:36:18.499Z,103094.09
2022-12-01T17:38:46.913Z,103091.47
2022-12-01T17:41:15.678Z,103090.69
2022-12-01T17:43:43.179Z,103094.38
2022-12-01T17:46:11.799Z,103089.53
2022-12-01T17:48:40.654Z,103081.28
2022-12-01T17:51:09.103Z,103090.25
2022-12-01T17:53:37.135Z,103092.38
2022-12-01T17:56:06.370Z,103093.50
2022-12-01T17:58:33.620Z,103096.56
2022-12-01T18:01:01.023Z,103097.41
2022-12-01T18:03:28.342Z,103098.22
2022-12-01T18:05:59.903Z,103100.69
2022-12-01T18:08:28.250Z,103103.19
2022-12-01T18:10:55.568Z,103092.41
2022-12-01T18:13:22.908Z,103095.09
2022-12-01T18:15:51.732Z,103105.88
2022-12-01T18:18:19.017Z,103098.44
2022-12-01T18:20:46.280Z,103096.25
2022-12-01T18:23:13.764Z,103083.94
2022-12-01T18:25:41.035Z,103101.75
2022-12-01T18:28:10.948Z,103097.81
2022-12-01T18:30:38.935Z,103091.91
2022-12-01T18:33:10.995Z,103091.91
2022-12-01T18:35:42.742Z,103090.97
2022-12-01T18:38:10.281Z,103097.69
2022-12-01T18:40:38.257Z,103098.63
2022-12-01T18:43:05.841Z,103102.28
2022-12-01T18:45:35.493Z,103096.56
2022-12-01T18:48:04.491Z,103097.91
2022-12-01T18:50:31.729Z,103094.91
2022-12-01T18:52:59.122Z,103096.38
2022-12-01T18:55:26.566Z,103098.13
2022-12-01T18:57:53.838Z,103096.88
2022-12-01T19:00:21.195Z,103105.44
2022-12-01T19:02:48.561Z,103090.75
2022-12-01T19:05:15.852Z,103101.94
2022-12-01T19:07:45.601Z,103096.31
2022-12-01T19:10:13.050Z,103104.25
2022-12-01T19:12:41.305Z,103101.34
2022-12-01T19:15:09.064Z,103106.50
2022-12-01T19:17:36.280Z,103099.75
2022-12-01T19:20:04.931Z,103094.91
2022-12-01T19:22:32.514Z,103092.63
2022-12-01T19:24:59.859Z,103092.47
2022-12-01T19:27:28.342Z,103100.47
2022-12-01T19:29:55.638Z,103096.06
2022-12-01T19:32:23.022Z,103100.16
2022-12-01T19:34:50.577Z,103096.03
2022-12-01T19:37:18.056Z,103099.88
2022-12-01T19:39:45.476Z,103099.81
2022-12-01T19:42:12.813Z,103103.97
2022-12-01T19:44:40.095Z,103098.94
2022-12-01T19:47:10.017Z,103106.50
2022-12-01T19:49:37.919Z,103113.34
2022-12-01T19:52:08.457Z,103111.91
2022-12-01T19:54:37.813Z,103112.94
2022-12-01T19:57:05.264Z,103115.44
2022-12-01T19:59:32.464Z,103108.84
2022-12-01T20:01:59.956Z,103104.47
2022-12-01T20:04:27.207Z,103102.56
2022-12-01T20:06:54.462Z,103106.66
2022-12-01T20:09:21.980Z,103108.50
2022-12-01T20:11:49.357Z,103106.81
2022-12-01T20:14:16.656Z,103100.63
2022-12-01T20:16:44.034Z,103111.09
2022-12-01T20:19:11.513Z,103107.66
2022-12-01T20:21:42.486Z,103108.19
2022-12-01T20:24:20.329Z,103109.94
2022-12-01T20:26:50.813Z,103107.25
2022-12-01T20:29:19.617Z,103102.94
2022-12-01T20:31:46.963Z,103108.41
2022-12-01T20:34:17.224Z,103102.06
2022-12-01T20:36:44.528Z,103112.94
2022-12-01T20:39:12.285Z,103111.72
2022-12-01T20:41:40.169Z,103110.53
2022-12-01T20:44:08.091Z,103099.56
2022-12-01T20:46:36.039Z,103097.19
2022-12-01T20:49:04.154Z,103108.09
2022-12-01T20:51:33.601Z,103112.81
2022-12-01T20:54:26.771Z,103109.97
2022-12-01T20:56:48.917Z,103117.19
2022-12-01T20:59:16.257Z,103116.34
2022-12-01T21:01:43.527Z,103113.88
2022-12-01T21:04:10.796Z,103105.28
2022-12-01T21:06:38.144Z,103106.63
2022-12-01T21:09:05.431Z,103104.56
2022-12-01T21:12:08.265Z,103098.75
2022-12-01T21:14:37.695Z,103105.34
2022-12-01T21:17:28.265Z,103109.03
2022-12-01T21:20:01.603Z,103111.09
2022-12-01T21:22:29.020Z,103103.84
2022-12-01T21:25:01.715Z,103102.25
2022-12-01T21:27:29.581Z,103106.63
2022-12-01T21:29:56.944Z,103097.22
2022-12-01T21:32:26.941Z,103098.38
2022-12-01T21:34:55.700Z,103107.44
2022-12-01T21:37:24.181Z,103109.78
2022-12-01T21:39:52.119Z,103109.25
2022-12-01T21:42:30.633Z,103107.19
2022-12-01T21:44:58.037Z,103111.28
2022-12-01T21:47:29.848Z,103102.69
2022-12-01T21:49:57.957Z,103108.16
2022-12-01T21:52:42.231Z,103103.06
2022-12-01T21:55:15.615Z,103106.19
2022-12-01T21:57:47.075Z,103108.25
2022-12-01T22:00:33.673Z,103107.66
2022-12-01T22:03:19.733Z,103110.53
2022-12-01T22:06:13.764Z,103101.13
2022-12-01T22:08:40.459Z,103111.03
2022-12-01T22:11:18.966Z,103106.97
2022-12-01T22:13:51.949Z,103106.88
2022-12-01T22:16:20.839Z,103112.66
2022-12-01T22:18:52.742Z,103098.94
2022-12-01T22:21:23.437Z,103103.38
2022-12-01T22:23:57.406Z,103100.00
2022-12-01T22:26:25.145Z,103096.81
2022-12-01T22:28:56.889Z,103099.13
2022-12-01T22:31:24.302Z,103104.34
2022-12-01T22:34:00.022Z,103096.47
2022-12-01T22:36:31.641Z,103094.31
2022-12-01T22:38:58.975Z,103095.59
2022-12-01T22:41:26.839Z,103093.88
2022-12-01T22:43:55.526Z,103095.84
2022-12-01T22:46:33.082Z,103088.28
2022-12-01T22:49:00.552Z,103086.25
2022-12-01T22:51:27.827Z,103083.00
2022-12-01T22:54:00.784Z,103085.72
2022-12-01T22:56:36.762Z,103073.66
2022-12-01T22:59:13.088Z,103075.44
2022-12-01T23:01:43.396Z,103074.56
2022-12-01T23:04:27.894Z,103067.22
2022-12-01T23:07:10.523Z,103065.34
2022-12-01T23:09:42.099Z,103068.47
2022-12-01T23:12:12.359Z,103071.59
2022-12-01T23:14:47.432Z,103074.69
2022-12-01T23:17:17.912Z,103071.53
2022-12-01T23:19:45.488Z,103070.34
2022-12-01T23:22:14.839Z,103070.91
2022-12-01T23:24:42.158Z,103074.47
2022-12-01T23:27:09.658Z,103066.13
2022-12-01T23:29:37.122Z,103072.31
2022-12-01T23:32:04.517Z,103079.78
2022-12-01T23:34:31.808Z,103081.13
2022-12-01T23:36:59.073Z,103071.81
2022-12-01T23:39:32.056Z,103065.78
2022-12-01T23:41:59.338Z,103065.78
2022-12-01T23:44:34.419Z,103057.69
2022-12-01T23:47:01.928Z,103056.06
2022-12-01T23:49:33.179Z,103054.59
2022-12-01T23:52:02.326Z,103048.59
2022-12-01T23:54:31.695Z,103045.28
2022-12-01T23:57:02.864Z,103050.34
2022-12-01T23:59:31.577Z,103052.09
